sensor_id;sensor_type;location;lat;lon;timestamp;pressure;altitude;pressure_sealevel;temperature;humidity
40089;BME280;25793;55.706;13.186;2022-10-17T00:00:40;101460.78;;;12.05;75.50
40089;BME280;25793;55.706;13.186;2022-10-17T00:03:08;101466.97;;;12.20;74.90
40089;BME280;25793;55.706;13.186;2022-10-17T00:05:39;101484.16;;;12.24;74.69
40089;BME280;25793;55.706;13.186;2022-10-17T00:08:06;101470.78;;;12.30;74.31
40089;BME280;25793;55.706;13.186;2022-10-17T00:10:33;101474.00;;;12.35;74.09
40089;BME280;25793;55.706;13.186;2022-10-17T00:13:00;101480.81;;;12.38;73.72
40089;BME280;25793;55.706;13.186;2022-10-17T00:15:27;101488.38;;;12.27;73.87
40089;BME280;25793;55.706;13.186;2022-10-17T00:17:53;101473.41;;;12.30;73.83
40089;BME280;25793;55.706;13.186;2022-10-17T00:20:20;101471.97;;;12.25;73.76
40089;BME280;25793;55.706;13.186;2022-10-17T00:22:47;101473.50;;;12.11;74.25
40089;BME280;25793;55.706;13.186;2022-10-17T00:25:13;101471.66;;;12.13;74.07
40089;BME280;25793;55.706;13.186;2022-10-17T00:27:41;101465.44;;;12.16;74.12
40089;BME280;25793;55.706;13.186;2022-10-17T00:30:12;101466.31;;;12.16;74.18
40089;BME280;25793;55.706;13.186;2022-10-17T00:32:40;101470.25;;;12.07;74.58
40089;BME280;25793;55.706;13.186;2022-10-17T00:35:07;101470.81;;;11.95;74.99
40089;BME280;25793;55.706;13.186;2022-10-17T00:37:34;101480.66;;;11.72;75.99
40089;BME280;25793;55.706;13.186;2022-10-17T00:40:01;101476.19;;;11.74;76.22
40089;BME280;25793;55.706;13.186;2022-10-17T00:42:28;101473.28;;;11.81;75.95
40089;BME280;25793;55.706;13.186;2022-10-17T00:47:47;101474.19;;;11.97;75.65
40089;BME280;25793;55.706;13.186;2022-10-17T00:50:15;101472.41;;;11.98;75.52
40089;BME280;25793;55.706;13.186;2022-10-17T00:52:44;101476.38;;;11.71;76.23
40089;BME280;25793;55.706;13.186;2022-10-17T00:55:20;101474.50;;;11.73;76.16
40089;BME280;25793;55.706;13.186;2022-10-17T00:57:48;101493.81;;;11.52;76.87
40089;BME280;25793;55.706;13.186;2022-10-17T01:00:18;101495.03;;;11.44;77.26
40089;BME280;25793;55.706;13.186;2022-10-17T01:02:45;101497.38;;;11.68;76.86
40089;BME280;25793;55.706;13.186;2022-10-17T01:05:13;101490.31;;;11.70;76.72
40089;BME280;25793;55.706;13.186;2022-10-17T01:07:42;101505.63;;;11.76;76.63
40089;BME280;25793;55.706;13.186;2022-10-17T01:10:10;101495.44;;;11.72;76.28
40089;BME280;25793;55.706;13.186;2022-10-17T01:12:56;101503.72;;;11.80;76.48
40089;BME280;25793;55.706;13.186;2022-10-17T01:15:58;101510.31;;;11.87;76.04
40089;BME280;25793;55.706;13.186;2022-10-17T01:29:20;101504.78;;;11.93;76.19
40089;BME280;25793;55.706;13.186;2022-10-17T01:32:03;101504.50;;;11.82;76.49
40089;BME280;25793;55.706;13.186;2022-10-17T01:34:34;101506.72;;;11.72;76.97
40089;BME280;25793;55.706;13.186;2022-10-17T01:37:25;101505.88;;;11.72;76.97
40089;BME280;25793;55.706;13.186;2022-10-17T01:42:32;101486.09;;;11.68;77.06
40089;BME280;25793;55.706;13.186;2022-10-17T01:45:15;101483.44;;;11.69;77.30
40089;BME280;25793;55.706;13.186;2022-10-17T01:47:45;101497.44;;;11.67;77.14
40089;BME280;25793;55.706;13.186;2022-10-17T01:50:18;101499.28;;;11.65;77.07
40089;BME280;25793;55.706;13.186;2022-10-17T01:53:08;101504.63;;;11.61;77.19
40089;BME280;25793;55.706;13.186;2022-10-17T01:55:40;101503.22;;;11.54;77.41
40089;BME280;25793;55.706;13.186;2022-10-17T01:58:12;101510.91;;;11.57;77.34
40089;BME280;25793;55.706;13.186;2022-10-17T02:00:44;101508.44;;;11.54;77.20
40089;BME280;25793;55.706;13.186;2022-10-17T02:03:16;101503.66;;;11.64;76.83
40089;BME280;25793;55.706;13.186;2022-10-17T02:05:44;101519.81;;;11.71;76.42
40089;BME280;25793;55.706;13.186;2022-10-17T02:08:11;101525.88;;;11.71;76.18
40089;BME280;25793;55.706;13.186;2022-10-17T02:10:50;101517.44;;;11.66;76.11
40089;BME280;25793;55.706;13.186;2022-10-17T02:16:09;101522.09;;;11.59;75.70
40089;BME280;25793;55.706;13.186;2022-10-17T02:24:53;101520.03;;;11.48;75.26
40089;BME280;25793;55.706;13.186;2022-10-17T02:30:44;101508.06;;;11.44;75.35
40089;BME280;25793;55.706;13.186;2022-10-17T02:33:33;101517.78;;;11.41;75.42
40089;BME280;25793;55.706;13.186;2022-10-17T02:36:11;101525.81;;;11.36;75.67
40089;BME280;25793;55.706;13.186;2022-10-17T02:38:41;101518.31;;;11.30;75.53
40089;BME280;25793;55.706;13.186;2022-10-17T02:41:13;101528.16;;;11.23;75.77
40089;BME280;25793;55.706;13.186;2022-10-17T02:43:41;101513.69;;;11.17;76.36
40089;BME280;25793;55.706;13.186;2022-10-17T02:46:12;101516.13;;;11.21;76.22
40089;BME280;25793;55.706;13.186;2022-10-17T02:48:50;101513.25;;;11.27;76.31
40089;BME280;25793;55.706;13.186;2022-10-17T02:51:58;101514.94;;;11.28;76.03
40089;BME280;25793;55.706;13.186;2022-10-17T02:54:40;101517.41;;;11.31;76.09
40089;BME280;25793;55.706;13.186;2022-10-17T02:57:16;101524.16;;;11.35;76.16
40089;BME280;25793;55.706;13.186;2022-10-17T02:59:44;101526.75;;;11.35;76.29
40089;BME280;25793;55.706;13.186;2022-10-17T03:02:12;101532.88;;;11.34;75.91
40089;BME280;25793;55.706;13.186;2022-10-17T03:04:45;101523.38;;;11.33;75.89
40089;BME280;25793;55.706;13.186;2022-10-17T03:07:12;101520.84;;;11.31;75.87
40089;BME280;25793;55.706;13.186;2022-10-17T03:09:38;101513.09;;;11.30;76.13
40089;BME280;25793;55.706;13.186;2022-10-17T03:12:05;101520.97;;;11.28;75.78
40089;BME280;25793;55.706;13.186;2022-10-17T03:14:32;101519.28;;;11.27;76.04
40089;BME280;25793;55.706;13.186;2022-10-17T03:16:59;101531.63;;;11.24;76.26
40089;BME280;25793;55.706;13.186;2022-10-17T03:19:26;101530.13;;;11.18;76.24
40089;BME280;25793;55.706;13.186;2022-10-17T03:21:53;101535.66;;;11.12;76.12
40089;BME280;25793;55.706;13.186;2022-10-17T03:24:20;101541.00;;;11.09;76.85
40089;BME280;25793;55.706;13.186;2022-10-17T03:26:47;101539.44;;;11.05;76.71
40089;BME280;25793;55.706;13.186;2022-10-17T03:29:13;101540.41;;;11.02;77.24
40089;BME280;25793;55.706;13.186;2022-10-17T03:31:40;101546.53;;;11.01;76.96
40089;BME280;25793;55.706;13.186;2022-10-17T03:34:08;101553.50;;;11.00;77.14
40089;BME280;25793;55.706;13.186;2022-10-17T03:36:35;101547.41;;;11.01;77.19
40089;BME280;25793;55.706;13.186;2022-10-17T03:39:02;101544.78;;;11.01;76.91
40089;BME280;25793;55.706;13.186;2022-10-17T03:41:29;101551.69;;;11.02;77.15
40089;BME280;25793;55.706;13.186;2022-10-17T03:43:56;101545.75;;;10.99;77.09
40089;BME280;25793;55.706;13.186;2022-10-17T03:46:23;101550.34;;;10.94;77.03
40089;BME280;25793;55.706;13.186;2022-10-17T03:48:51;101554.06;;;10.88;77.71
40089;BME280;25793;55.706;13.186;2022-10-17T03:51:18;101551.59;;;10.85;77.79
40089;BME280;25793;55.706;13.186;2022-10-17T03:53:49;101560.31;;;10.84;78.14
40089;BME280;25793;55.706;13.186;2022-10-17T03:56:19;101557.84;;;10.81;78.13
40089;BME280;25793;55.706;13.186;2022-10-17T03:58:55;101563.28;;;10.76;78.23
40089;BME280;25793;55.706;13.186;2022-10-17T04:01:22;101555.75;;;10.70;78.50
40089;BME280;25793;55.706;13.186;2022-10-17T04:03:51;101563.25;;;10.57;78.84
40089;BME280;25793;55.706;13.186;2022-10-17T04:06:18;101553.97;;;10.51;79.48
40089;BME280;25793;55.706;13.186;2022-10-17T04:08:46;101555.84;;;10.48;79.44
40089;BME280;25793;55.706;13.186;2022-10-17T04:11:20;101572.34;;;10.47;79.66
40089;BME280;25793;55.706;13.186;2022-10-17T04:13:52;101562.16;;;10.42;79.86
40089;BME280;25793;55.706;13.186;2022-10-17T04:16:19;101565.00;;;10.36;80.16
40089;BME280;25793;55.706;13.186;2022-10-17T04:18:58;101556.50;;;10.32;80.18
40089;BME280;25793;55.706;13.186;2022-10-17T04:21:28;101554.84;;;10.29;80.64
40089;BME280;25793;55.706;13.186;2022-10-17T04:24:00;101556.66;;;10.27;81.06
40089;BME280;25793;55.706;13.186;2022-10-17T04:26:49;101542.72;;;10.30;81.13
40089;BME280;25793;55.706;13.186;2022-10-17T04:29:18;101532.44;;;10.27;81.13
40089;BME280;25793;55.706;13.186;2022-10-17T04:31:47;101539.47;;;10.25;81.55
40089;BME280;25793;55.706;13.186;2022-10-17T04:34:28;101549.66;;;10.29;81.82
40089;BME280;25793;55.706;13.186;2022-10-17T04:36:55;101557.19;;;10.36;81.46
40089;BME280;25793;55.706;13.186;2022-10-17T04:39:22;101554.22;;;10.45;81.52
40089;BME280;25793;55.706;13.186;2022-10-17T04:41:49;101552.41;;;10.47;81.02
40089;BME280;25793;55.706;13.186;2022-10-17T04:44:16;101551.69;;;10.43;81.24
40089;BME280;25793;55.706;13.186;2022-10-17T04:46:49;101544.03;;;10.40;81.18
40089;BME280;25793;55.706;13.186;2022-10-17T04:49:16;101551.84;;;10.40;81.63
40089;BME280;25793;55.706;13.186;2022-10-17T04:51:46;101567.28;;;10.43;81.46
40089;BME280;25793;55.706;13.186;2022-10-17T04:54:19;101568.94;;;10.46;81.11
40089;BME280;25793;55.706;13.186;2022-10-17T04:56:51;101571.41;;;10.49;81.63
40089;BME280;25793;55.706;13.186;2022-10-17T04:59:18;101578.34;;;10.49;81.46
40089;BME280;25793;55.706;13.186;2022-10-17T05:01:48;101579.06;;;10.52;81.20
40089;BME280;25793;55.706;13.186;2022-10-17T05:04:17;101573.72;;;10.55;81.48
40089;BME280;25793;55.706;13.186;2022-10-17T05:06:49;101570.91;;;10.60;81.23
40089;BME280;25793;55.706;13.186;2022-10-17T05:09:36;101571.69;;;10.62;81.61
40089;BME280;25793;55.706;13.186;2022-10-17T05:12:03;101569.16;;;10.61;81.33
40089;BME280;25793;55.706;13.186;2022-10-17T05:14:36;101570.69;;;10.65;81.30
40089;BME280;25793;55.706;13.186;2022-10-17T05:17:03;101564.81;;;10.61;81.35
40089;BME280;25793;55.706;13.186;2022-10-17T05:19:30;101576.13;;;10.60;81.33
40089;BME280;25793;55.706;13.186;2022-10-17T05:21:57;101582.88;;;10.64;81.37
40089;BME280;25793;55.706;13.186;2022-10-17T05:24:24;101588.78;;;10.68;81.39
40089;BME280;25793;55.706;13.186;2022-10-17T05:26:52;101582.41;;;10.75;81.85
40089;BME280;25793;55.706;13.186;2022-10-17T05:29:18;101589.06;;;10.81;81.61
40089;BME280;25793;55.706;13.186;2022-10-17T05:31:50;101590.00;;;10.80;81.49
40089;BME280;25793;55.706;13.186;2022-10-17T05:34:18;101580.66;;;10.76;81.25
40089;BME280;25793;55.706;13.186;2022-10-17T05:36:45;101587.56;;;10.77;81.08
40089;BME280;25793;55.706;13.186;2022-10-17T05:39:13;101583.09;;;10.79;81.01
40089;BME280;25793;55.706;13.186;2022-10-17T05:41:46;101595.16;;;10.81;81.10
40089;BME280;25793;55.706;13.186;2022-10-17T05:44:13;101596.88;;;10.81;80.86
40089;BME280;25793;55.706;13.186;2022-10-17T05:46:43;101606.47;;;10.80;80.94
40089;BME280;25793;55.706;13.186;2022-10-17T05:49:11;101597.75;;;10.81;80.94
40089;BME280;25793;55.706;13.186;2022-10-17T05:51:51;101597.97;;;10.77;80.98
40089;BME280;25793;55.706;13.186;2022-10-17T05:54:18;101600.63;;;10.75;81.37
40089;BME280;25793;55.706;13.186;2022-10-17T05:56:44;101605.78;;;10.77;81.61
40089;BME280;25793;55.706;13.186;2022-10-17T05:59:11;101615.88;;;10.83;81.30
40089;BME280;25793;55.706;13.186;2022-10-17T06:01:47;101608.94;;;10.83;81.39
40089;BME280;25793;55.706;13.186;2022-10-17T06:04:14;101606.13;;;10.88;81.34
40089;BME280;25793;55.706;13.186;2022-10-17T06:06:46;101613.09;;;10.87;81.29
40089;BME280;25793;55.706;13.186;2022-10-17T06:09:13;101614.66;;;10.92;81.39
40089;BME280;25793;55.706;13.186;2022-10-17T06:11:44;101611.06;;;10.94;81.28
40089;BME280;25793;55.706;13.186;2022-10-17T06:14:11;101613.66;;;10.94;81.27
40089;BME280;25793;55.706;13.186;2022-10-17T06:16:39;101615.13;;;11.00;81.32
40089;BME280;25793;55.706;13.186;2022-10-17T06:19:06;101608.81;;;11.06;81.28
40089;BME280;25793;55.706;13.186;2022-10-17T06:21:33;101606.72;;;11.14;81.14
40089;BME280;25793;55.706;13.186;2022-10-17T06:24:09;101595.31;;;11.16;81.20
40089;BME280;25793;55.706;13.186;2022-10-17T06:26:39;101589.03;;;11.21;81.19
40089;BME280;25793;55.706;13.186;2022-10-17T06:29:07;101598.41;;;11.25;81.14
40089;BME280;25793;55.706;13.186;2022-10-17T06:31:40;101599.72;;;11.33;80.96
40089;BME280;25793;55.706;13.186;2022-10-17T06:34:06;101606.41;;;11.39;80.72
40089;BME280;25793;55.706;13.186;2022-10-17T06:36:34;101612.09;;;11.47;80.72
40089;BME280;25793;55.706;13.186;2022-10-17T06:39:00;101606.25;;;11.61;80.39
40089;BME280;25793;55.706;13.186;2022-10-17T06:41:34;101614.91;;;11.62;79.74
40089;BME280;25793;55.706;13.186;2022-10-17T06:44:04;101615.69;;;11.64;79.74
40089;BME280;25793;55.706;13.186;2022-10-17T06:46:45;101611.31;;;11.65;79.56
40089;BME280;25793;55.706;13.186;2022-10-17T06:49:15;101614.53;;;11.70;79.45
40089;BME280;25793;55.706;13.186;2022-10-17T06:52:14;101617.00;;;11.73;79.51
40089;BME280;25793;55.706;13.186;2022-10-17T06:54:56;101615.84;;;11.78;79.12
40089;BME280;25793;55.706;13.186;2022-10-17T06:57:40;101622.47;;;11.86;78.87
40089;BME280;25793;55.706;13.186;2022-10-17T07:00:27;101618.56;;;11.95;78.90
40089;BME280;25793;55.706;13.186;2022-10-17T07:02:55;101624.22;;;12.04;78.37
40089;BME280;25793;55.706;13.186;2022-10-17T07:05:22;101612.53;;;12.12;77.86
40089;BME280;25793;55.706;13.186;2022-10-17T07:07:49;101614.78;;;12.19;77.91
40089;BME280;25793;55.706;13.186;2022-10-17T07:10:17;101606.72;;;12.24;77.37
40089;BME280;25793;55.706;13.186;2022-10-17T07:12:44;101600.53;;;12.27;76.96
40089;BME280;25793;55.706;13.186;2022-10-17T07:15:11;101614.91;;;12.34;76.83
40089;BME280;25793;55.706;13.186;2022-10-17T07:17:38;101606.63;;;12.43;76.86
40089;BME280;25793;55.706;13.186;2022-10-17T07:20:05;101601.63;;;12.56;76.46
40089;BME280;25793;55.706;13.186;2022-10-17T07:22:34;101585.50;;;12.65;76.09
40089;BME280;25793;55.706;13.186;2022-10-17T07:25:00;101587.28;;;12.65;76.23
40089;BME280;25793;55.706;13.186;2022-10-17T07:27:43;101599.00;;;12.74;76.00
40089;BME280;25793;55.706;13.186;2022-10-17T07:30:10;101598.50;;;12.83;75.90
40089;BME280;25793;55.706;13.186;2022-10-17T07:32:39;101597.41;;;12.87;75.50
40089;BME280;25793;55.706;13.186;2022-10-17T07:35:08;101596.09;;;12.96;75.27
40089;BME280;25793;55.706;13.186;2022-10-17T07:37:35;101611.00;;;13.10;75.50
40089;BME280;25793;55.706;13.186;2022-10-17T07:40:05;101593.66;;;13.25;75.04
40089;BME280;25793;55.706;13.186;2022-10-17T07:42:35;101605.38;;;13.34;74.83
40089;BME280;25793;55.706;13.186;2022-10-17T07:45:03;101601.06;;;13.33;74.71
40089;BME280;25793;55.706;13.186;2022-10-17T07:47:31;101606.06;;;13.37;74.26
40089;BME280;25793;55.706;13.186;2022-10-17T07:50:02;101611.13;;;13.40;74.45
40089;BME280;25793;55.706;13.186;2022-10-17T07:52:29;101604.38;;;13.36;74.74
40089;BME280;25793;55.706;13.186;2022-10-17T07:54:56;101602.28;;;13.43;75.20
40089;BME280;25793;55.706;13.186;2022-10-17T07:57:23;101599.41;;;13.48;74.99
40089;BME280;25793;55.706;13.186;2022-10-17T07:59:50;101590.47;;;13.52;75.06
40089;BME280;25793;55.706;13.186;2022-10-17T08:02:21;101585.81;;;13.57;74.70
40089;BME280;25793;55.706;13.186;2022-10-17T08:04:51;101582.63;;;13.52;75.35
40089;BME280;25793;55.706;13.186;2022-10-17T08:07:19;101590.88;;;13.60;75.35
40089;BME280;25793;55.706;13.186;2022-10-17T08:09:52;101592.41;;;13.64;75.50
40089;BME280;25793;55.706;13.186;2022-10-17T08:12:19;101586.84;;;13.70;75.16
40089;BME280;25793;55.706;13.186;2022-10-17T08:14:45;101593.41;;;13.78;75.11
40089;BME280;25793;55.706;13.186;2022-10-17T08:17:13;101593.41;;;13.78;75.07
40089;BME280;25793;55.706;13.186;2022-10-17T08:19:40;101587.78;;;13.84;75.20
40089;BME280;25793;55.706;13.186;2022-10-17T08:22:06;101582.50;;;13.85;75.29
40089;BME280;25793;55.706;13.186;2022-10-17T08:24:33;101584.06;;;13.88;75.35
40089;BME280;25793;55.706;13.186;2022-10-17T08:27:00;101574.94;;;13.95;75.64
40089;BME280;25793;55.706;13.186;2022-10-17T08:29:27;101569.09;;;14.06;75.50
40089;BME280;25793;55.706;13.186;2022-10-17T08:31:54;101572.09;;;14.14;75.91
40089;BME280;25793;55.706;13.186;2022-10-17T08:34:26;101571.56;;;14.24;75.82
40089;BME280;25793;55.706;13.186;2022-10-17T08:36:53;101563.94;;;14.35;75.83
40089;BME280;25793;55.706;13.186;2022-10-17T08:39:20;101557.19;;;14.45;75.81
40089;BME280;25793;55.706;13.186;2022-10-17T08:47:12;101548.81;;;14.69;74.83
40089;BME280;25793;55.706;13.186;2022-10-17T08:49:49;101549.44;;;14.73;74.38
40089;BME280;25793;55.706;13.186;2022-10-17T08:54:55;101534.38;;;14.91;73.67
40089;BME280;25793;55.706;13.186;2022-10-17T08:57:21;101536.50;;;14.99;73.32
40089;BME280;25793;55.706;13.186;2022-10-17T08:59:50;101544.53;;;15.10;72.72
40089;BME280;25793;55.706;13.186;2022-10-17T09:15:59;101521.84;;;15.51;69.88
40089;BME280;25793;55.706;13.186;2022-10-17T09:18:36;101518.91;;;15.56;69.84
40089;BME280;25793;55.706;13.186;2022-10-17T09:21:35;101499.00;;;15.66;69.23
40089;BME280;25793;55.706;13.186;2022-10-17T09:24:12;101494.91;;;15.62;69.03
40089;BME280;25793;55.706;13.186;2022-10-17T09:26:43;101502.56;;;15.65;69.01
40089;BME280;25793;55.706;13.186;2022-10-17T09:29:17;101506.69;;;15.69;68.48
40089;BME280;25793;55.706;13.186;2022-10-17T09:32:13;101506.75;;;15.68;67.87
40089;BME280;25793;55.706;13.186;2022-10-17T09:34:40;101507.63;;;15.68;68.08
40089;BME280;25793;55.706;13.186;2022-10-17T09:37:12;101509.19;;;15.71;68.01
40089;BME280;25793;55.706;13.186;2022-10-17T09:39:41;101498.16;;;15.78;67.57
40089;BME280;25793;55.706;13.186;2022-10-17T09:42:13;101485.50;;;15.85;67.26
40089;BME280;25793;55.706;13.186;2022-10-17T09:44:54;101479.44;;;15.98;66.66
40089;BME280;25793;55.706;13.186;2022-10-17T09:47:54;101486.47;;;15.97;66.30
40089;BME280;25793;55.706;13.186;2022-10-17T09:50:29;101472.63;;;15.95;66.26
40089;BME280;25793;55.706;13.186;2022-10-17T09:53:22;101465.91;;;16.04;66.06
40089;BME280;25793;55.706;13.186;2022-10-17T09:55:54;101466.63;;;16.06;65.87
40089;BME280;25793;55.706;13.186;2022-10-17T09:58:22;101480.28;;;16.11;65.75
40089;BME280;25793;55.706;13.186;2022-10-17T10:00:48;101475.44;;;16.18;65.96
40089;BME280;25793;55.706;13.186;2022-10-17T10:03:23;101482.16;;;16.22;66.08
40089;BME280;25793;55.706;13.186;2022-10-17T10:06:14;101485.81;;;16.32;65.97
40089;BME280;25793;55.706;13.186;2022-10-17T10:08:53;101475.50;;;16.42;65.79
40089;BME280;25793;55.706;13.186;2022-10-17T10:12:05;101477.81;;;16.47;65.97
40089;BME280;25793;55.706;13.186;2022-10-17T10:16:46;101470.34;;;16.53;66.33
40089;BME280;25793;55.706;13.186;2022-10-17T10:19:30;101463.22;;;16.56;66.61
40089;BME280;25793;55.706;13.186;2022-10-17T10:21:59;101462.56;;;16.52;66.82
40089;BME280;25793;55.706;13.186;2022-10-17T10:24:27;101436.53;;;16.49;67.22
40089;BME280;25793;55.706;13.186;2022-10-17T10:26:59;101409.31;;;16.50;67.04
40089;BME280;25793;55.706;13.186;2022-10-17T10:32:06;101398.22;;;16.46;67.39
40089;BME280;25793;55.706;13.186;2022-10-17T10:34:34;101390.34;;;16.46;67.53
40089;BME280;25793;55.706;13.186;2022-10-17T10:37:05;101376.59;;;16.43;67.96
40089;BME280;25793;55.706;13.186;2022-10-17T10:39:49;101359.91;;;16.31;68.20
40089;BME280;25793;55.706;13.186;2022-10-17T10:42:40;101336.31;;;16.31;68.68
40089;BME280;25793;55.706;13.186;2022-10-17T10:53:33;101322.56;;;16.27;69.44
40089;BME280;25793;55.706;13.186;2022-10-17T10:56:22;101343.44;;;16.42;69.38
40089;BME280;25793;55.706;13.186;2022-10-17T10:59:02;101332.22;;;16.51;69.14
40089;BME280;25793;55.706;13.186;2022-10-17T11:06:54;101351.53;;;16.63;68.72
40089;BME280;25793;55.706;13.186;2022-10-17T11:09:56;101343.16;;;16.69;68.00
40089;BME280;25793;55.706;13.186;2022-10-17T11:12:29;101343.16;;;16.69;68.70
40089;BME280;25793;55.706;13.186;2022-10-17T11:18:32;101347.16;;;16.75;68.40
40089;BME280;25793;55.706;13.186;2022-10-17T11:21:02;101344.31;;;16.78;68.39
40089;BME280;25793;55.706;13.186;2022-10-17T11:23:47;101333.56;;;16.81;68.37
40089;BME280;25793;55.706;13.186;2022-10-17T11:26:21;101331.81;;;16.93;68.33
40089;BME280;25793;55.706;13.186;2022-10-17T11:28:53;101338.63;;;16.95;68.06
40089;BME280;25793;55.706;13.186;2022-10-17T11:31:22;101339.88;;;17.03;67.80
40089;BME280;25793;55.706;13.186;2022-10-17T11:33:58;101321.25;;;17.06;67.85
40089;BME280;25793;55.706;13.186;2022-10-17T11:36:29;101329.25;;;17.16;67.74
40089;BME280;25793;55.706;13.186;2022-10-17T11:39:26;101319.97;;;17.23;67.41
40089;BME280;25793;55.706;13.186;2022-10-17T11:42:03;101318.66;;;17.28;67.36
40089;BME280;25793;55.706;13.186;2022-10-17T11:44:39;101316.97;;;17.27;66.92
40089;BME280;25793;55.706;13.186;2022-10-17T11:53:13;101291.66;;;17.61;66.34
40089;BME280;25793;55.706;13.186;2022-10-17T11:55:42;101282.13;;;17.60;66.16
40089;BME280;25793;55.706;13.186;2022-10-17T12:09:24;101268.06;;;17.93;64.84
40089;BME280;25793;55.706;13.186;2022-10-17T12:12:00;101264.34;;;18.07;64.40
40089;BME280;25793;55.706;13.186;2022-10-17T12:14:38;101263.75;;;18.15;63.66
40089;BME280;25793;55.706;13.186;2022-10-17T12:19:50;101255.22;;;18.23;63.22
40089;BME280;25793;55.706;13.186;2022-10-17T12:22:21;101258.44;;;18.47;62.66
40089;BME280;25793;55.706;13.186;2022-10-17T12:25:02;101247.03;;;18.58;61.73
40089;BME280;25793;55.706;13.186;2022-10-17T12:30:05;101254.56;;;19.05;60.65
40089;BME280;25793;55.706;13.186;2022-10-17T12:32:32;101245.06;;;19.24;59.86
40089;BME280;25793;55.706;13.186;2022-10-17T12:35:21;101244.72;;;19.39;59.69
40089;BME280;25793;55.706;13.186;2022-10-17T12:53:57;101245.59;;;17.89;65.79
40089;BME280;25793;55.706;13.186;2022-10-17T12:56:35;101237.22;;;17.84;66.45
40089;BME280;25793;55.706;13.186;2022-10-17T12:59:24;101227.81;;;17.70;67.29
40089;BME280;25793;55.706;13.186;2022-10-17T13:01:58;101222.78;;;17.67;67.51
40089;BME280;25793;55.706;13.186;2022-10-17T13:04:26;101222.94;;;17.54;68.13
40089;BME280;25793;55.706;13.186;2022-10-17T13:06:56;101215.53;;;17.48;68.75
40089;BME280;25793;55.706;13.186;2022-10-17T13:09:29;101216.00;;;17.41;69.07
40089;BME280;25793;55.706;13.186;2022-10-17T13:11:59;101222.25;;;17.40;69.19
40089;BME280;25793;55.706;13.186;2022-10-17T13:14:27;101229.13;;;17.41;69.31
40089;BME280;25793;55.706;13.186;2022-10-17T13:19:29;101216.88;;;17.19;70.11
40089;BME280;25793;55.706;13.186;2022-10-17T13:22:00;101214.34;;;17.18;70.43
40089;BME280;25793;55.706;13.186;2022-10-17T13:24:37;101217.34;;;17.13;70.84
40089;BME280;25793;55.706;13.186;2022-10-17T13:27:19;101202.53;;;17.12;71.11
40089;BME280;25793;55.706;13.186;2022-10-17T13:29:46;101204.91;;;17.04;71.49
40089;BME280;25793;55.706;13.186;2022-10-17T13:32:13;101195.13;;;17.06;71.79
40089;BME280;25793;55.706;13.186;2022-10-17T13:34:40;101206.34;;;17.08;71.84
40089;BME280;25793;55.706;13.186;2022-10-17T13:37:10;101197.50;;;17.09;71.97
40089;BME280;25793;55.706;13.186;2022-10-17T13:39:40;101174.69;;;17.09;72.08
40089;BME280;25793;55.706;13.186;2022-10-17T13:42:28;101182.78;;;17.06;72.24
40089;BME280;25793;55.706;13.186;2022-10-17T13:44:57;101178.75;;;17.02;72.35
40089;BME280;25793;55.706;13.186;2022-10-17T13:47:28;101172.78;;;17.00;72.72
40089;BME280;25793;55.706;13.186;2022-10-17T13:49:55;101163.34;;;16.97;72.99
40089;BME280;25793;55.706;13.186;2022-10-17T13:52:28;101163.53;;;16.94;73.05
40089;BME280;25793;55.706;13.186;2022-10-17T13:55:12;101161.38;;;16.88;73.41
40089;BME280;25793;55.706;13.186;2022-10-17T13:57:43;101163.28;;;16.86;73.30
40089;BME280;25793;55.706;13.186;2022-10-17T14:00:17;101156.63;;;16.82;73.65
40089;BME280;25793;55.706;13.186;2022-10-17T14:02:45;101161.16;;;16.80;74.02
40089;BME280;25793;55.706;13.186;2022-10-17T14:05:15;101167.25;;;16.80;74.07
40089;BME280;25793;55.706;13.186;2022-10-17T14:07:50;101177.03;;;16.78;74.16
40089;BME280;25793;55.706;13.186;2022-10-17T14:10:39;101180.13;;;16.72;74.13
40089;BME280;25793;55.706;13.186;2022-10-17T14:13:13;101174.75;;;16.74;74.34
40089;BME280;25793;55.706;13.186;2022-10-17T14:15:44;101175.25;;;16.79;74.27
40089;BME280;25793;55.706;13.186;2022-10-17T14:18:28;101172.00;;;16.75;74.36
40089;BME280;25793;55.706;13.186;2022-10-17T14:21:02;101168.31;;;16.78;74.44
40089;BME280;25793;55.706;13.186;2022-10-17T14:23:51;101165.06;;;16.74;74.23
40089;BME280;25793;55.706;13.186;2022-10-17T14:26:20;101176.66;;;16.72;74.25
40089;BME280;25793;55.706;13.186;2022-10-17T14:29:17;101176.03;;;16.68;74.69
40089;BME280;25793;55.706;13.186;2022-10-17T14:31:38;101167.22;;;16.69;75.03
40089;BME280;25793;55.706;13.186;2022-10-17T14:34:05;101162.69;;;16.71;75.00
40089;BME280;25793;55.706;13.186;2022-10-17T14:36:35;101156.59;;;16.71;75.37
40089;BME280;25793;55.706;13.186;2022-10-17T14:39:05;101156.00;;;16.67;75.30
40089;BME280;25793;55.706;13.186;2022-10-17T14:41:42;101166.03;;;16.62;75.61
40089;BME280;25793;55.706;13.186;2022-10-17T14:44:30;101167.94;;;16.60;75.76
40089;BME280;25793;55.706;13.186;2022-10-17T14:47:03;101177.94;;;16.54;75.90
40089;BME280;25793;55.706;13.186;2022-10-17T14:50:22;101198.47;;;16.49;76.25
40089;BME280;25793;55.706;13.186;2022-10-17T14:53:00;101205.97;;;16.54;76.23
40089;BME280;25793;55.706;13.186;2022-10-17T14:55:29;101209.56;;;16.53;76.38
40089;BME280;25793;55.706;13.186;2022-10-17T14:57:56;101202.03;;;16.48;76.72
40089;BME280;25793;55.706;13.186;2022-10-17T15:00:24;101219.69;;;16.46;76.71